sensor_id;sensor_type;location;lat;lon;timestamp;temperature;humidity
21246;DHT22;10781;50.928;4.440;2022-10-16T00:01:31;16.40;99.90
21246;DHT22;10781;50.928;4.440;2022-10-16T00:03:58;16.20;99.90
21246;DHT22;10781;50.928;4.440;2022-10-16T00:06:26;16.10;99.90
21246;DHT22;10781;50.928;4.440;2022-10-16T00:08:52;16.20;99.90
21246;DHT22;10781;50.928;4.440;2022-10-16T00:11:24;16.30;99.90
21246;DHT22;10781;50.928;4.440;2022-10-16T00:13:51;16.40;99.90
21246;DHT22;10781;50.928;4.440;2022-10-16T00:16:19;16.40;99.90
21246;DHT22;10781;50.928;4.440;2022-10-16T00:18:45;16.40;99.90
21246;DHT22;10781;50.928;4.440;2022-10-16T00:21:17;16.20;99.90
21246;DHT22;10781;50.928;4.440;2022-10-16T00:23:43;16.10;99.90
21246;DHT22;10781;50.928;4.440;2022-10-16T00:26:17;16.00;99.90
21246;DHT22;10781;50.928;4.440;2022-10-16T00:28:48;16.00;99.90
21246;DHT22;10781;50.928;4.440;2022-10-16T00:31:15;16.00;99.90
21246;DHT22;10781;50.928;4.440;2022-10-16T00:33:41;16.10;99.90
21246;DHT22;10781;50.928;4.440;2022-10-16T00:36:11;16.20;99.90
21246;DHT22;10781;50.928;4.440;2022-10-16T00:38:37;15.90;99.90
21246;DHT22;10781;50.928;4.440;2022-10-16T00:41:04;16.00;99.90
21246;DHT22;10781;50.928;4.440;2022-10-16T00:46:26;16.00;99.90
21246;DHT22;10781;50.928;4.440;2022-10-16T00:49:03;15.90;99.90
21246;DHT22;10781;50.928;4.440;2022-10-16T00:51:42;15.80;99.90
21246;DHT22;10781;50.928;4.440;2022-10-16T00:54:17;15.90;99.90
21246;DHT22;10781;50.928;4.440;2022-10-16T00:56:46;15.90;99.90
21246;DHT22;10781;50.928;4.440;2022-10-16T00:59:24;15.80;99.90
21246;DHT22;10781;50.928;4.440;2022-10-16T01:01:51;15.80;99.90
21246;DHT22;10781;50.928;4.440;2022-10-16T01:04:17;15.70;99.90
21246;DHT22;10781;50.928;4.440;2022-10-16T01:09:16;15.60;99.90
21246;DHT22;10781;50.928;4.440;2022-10-16T01:17:25;15.80;99.90
21246;DHT22;10781;50.928;4.440;2022-10-16T01:22:26;15.70;99.90
21246;DHT22;10781;50.928;4.440;2022-10-16T01:25:00;15.80;99.90
21246;DHT22;10781;50.928;4.440;2022-10-16T01:27:30;15.70;99.90
21246;DHT22;10781;50.928;4.440;2022-10-16T01:32:47;15.50;99.90
21246;DHT22;10781;50.928;4.440;2022-10-16T01:38:01;15.80;99.90
21246;DHT22;10781;50.928;4.440;2022-10-16T01:40:29;15.80;99.90
21246;DHT22;10781;50.928;4.440;2022-10-16T01:43:08;15.60;99.90
21246;DHT22;10781;50.928;4.440;2022-10-16T01:45:36;15.60;99.90
21246;DHT22;10781;50.928;4.440;2022-10-16T01:48:04;15.60;99.90
21246;DHT22;10781;50.928;4.440;2022-10-16T01:50:36;15.60;99.90
21246;DHT22;10781;50.928;4.440;2022-10-16T01:53:05;15.70;99.90
21246;DHT22;10781;50.928;4.440;2022-10-16T01:55:35;15.80;99.90
21246;DHT22;10781;50.928;4.440;2022-10-16T01:58:05;15.80;99.90
21246;DHT22;10781;50.928;4.440;2022-10-16T02:00:32;15.70;99.90
21246;DHT22;10781;50.928;4.440;2022-10-16T02:03:01;15.60;99.90
21246;DHT22;10781;50.928;4.440;2022-10-16T02:05:34;15.70;99.90
21246;DHT22;10781;50.928;4.440;2022-10-16T02:08:02;15.60;99.90
21246;DHT22;10781;50.928;4.440;2022-10-16T02:10:28;15.80;99.90
21246;DHT22;10781;50.928;4.440;2022-10-16T02:13:10;15.90;99.90
21246;DHT22;10781;50.928;4.440;2022-10-16T02:15:37;15.90;99.90
21246;DHT22;10781;50.928;4.440;2022-10-16T02:18:04;16.00;99.90
21246;DHT22;10781;50.928;4.440;2022-10-16T02:20:36;16.00;99.90
21246;DHT22;10781;50.928;4.440;2022-10-16T02:23:03;15.80;99.90
21246;DHT22;10781;50.928;4.440;2022-10-16T02:25:35;15.80;99.90
21246;DHT22;10781;50.928;4.440;2022-10-16T02:28:07;15.90;99.90
21246;DHT22;10781;50.928;4.440;2022-10-16T02:31:01;15.80;99.90
21246;DHT22;10781;50.928;4.440;2022-10-16T02:33:29;15.70;99.90
21246;DHT22;10781;50.928;4.440;2022-10-16T02:35:57;15.70;99.90
21246;DHT22;10781;50.928;4.440;2022-10-16T02:38:24;15.90;99.90
21246;DHT22;10781;50.928;4.440;2022-10-16T02:40:50;15.80;99.90
21246;DHT22;10781;50.928;4.440;2022-10-16T02:43:16;15.70;99.90
21246;DHT22;10781;50.928;4.440;2022-10-16T02:45:42;15.80;99.90
21246;DHT22;10781;50.928;4.440;2022-10-16T02:48:08;15.70;99.90
21246;DHT22;10781;50.928;4.440;2022-10-16T02:50:34;15.80;99.90
21246;DHT22;10781;50.928;4.440;2022-10-16T02:53:00;15.50;99.90
21246;DHT22;10781;50.928;4.440;2022-10-16T02:55:25;15.60;99.90
21246;DHT22;10781;50.928;4.440;2022-10-16T02:57:53;15.50;99.90
21246;DHT22;10781;50.928;4.440;2022-10-16T03:00:19;15.70;99.90
21246;DHT22;10781;50.928;4.440;2022-10-16T03:02:45;15.70;99.90
21246;DHT22;10781;50.928;4.440;2022-10-16T03:05:12;15.80;99.90
21246;DHT22;10781;50.928;4.440;2022-10-16T03:07:37;15.70;99.90
21246;DHT22;10781;50.928;4.440;2022-10-16T03:10:03;15.60;99.90
21246;DHT22;10781;50.928;4.440;2022-10-16T03:12:29;15.50;99.90
21246;DHT22;10781;50.928;4.440;2022-10-16T03:14:56;15.40;99.90
21246;DHT22;10781;50.928;4.440;2022-10-16T03:17:22;15.60;99.90
21246;DHT22;10781;50.928;4.440;2022-10-16T03:19:48;15.70;99.90
21246;DHT22;10781;50.928;4.440;2022-10-16T03:22:14;15.70;99.90
21246;DHT22;10781;50.928;4.440;2022-10-16T03:24:39;15.50;99.90
21246;DHT22;10781;50.928;4.440;2022-10-16T03:27:05;15.60;99.90
21246;DHT22;10781;50.928;4.440;2022-10-16T03:29:31;15.60;99.90
21246;DHT22;10781;50.928;4.440;2022-10-16T03:31:58;15.60;99.90
21246;DHT22;10781;50.928;4.440;2022-10-16T03:34:24;15.70;99.90
21246;DHT22;10781;50.928;4.440;2022-10-16T03:36:50;15.70;99.90
21246;DHT22;10781;50.928;4.440;2022-10-16T03:39:15;15.80;99.90
21246;DHT22;10781;50.928;4.440;2022-10-16T03:41:41;15.70;99.90
21246;DHT22;10781;50.928;4.440;2022-10-16T03:44:10;15.70;99.90
21246;DHT22;10781;50.928;4.440;2022-10-16T03:46:35;15.70;99.90
21246;DHT22;10781;50.928;4.440;2022-10-16T03:49:01;15.90;99.90
21246;DHT22;10781;50.928;4.440;2022-10-16T03:51:26;15.80;99.90
21246;DHT22;10781;50.928;4.440;2022-10-16T03:53:52;15.70;99.90
21246;DHT22;10781;50.928;4.440;2022-10-16T03:56:18;15.90;99.90
21246;DHT22;10781;50.928;4.440;2022-10-16T03:58:44;15.90;99.90
21246;DHT22;10781;50.928;4.440;2022-10-16T04:01:09;15.90;99.90
21246;DHT22;10781;50.928;4.440;2022-10-16T04:03:35;15.90;99.90
21246;DHT22;10781;50.928;4.440;2022-10-16T04:06:00;15.90;99.90
21246;DHT22;10781;50.928;4.440;2022-10-16T04:08:26;15.90;99.90
21246;DHT22;10781;50.928;4.440;2022-10-16T04:10:52;15.90;99.90
21246;DHT22;10781;50.928;4.440;2022-10-16T04:13:17;16.00;99.90
21246;DHT22;10781;50.928;4.440;2022-10-16T04:15:45;16.00;99.90
21246;DHT22;10781;50.928;4.440;2022-10-16T04:18:11;16.10;99.90
21246;DHT22;10781;50.928;4.440;2022-10-16T04:20:37;16.20;99.90
21246;DHT22;10781;50.928;4.440;2022-10-16T04:25:29;16.10;99.90
21246;DHT22;10781;50.928;4.440;2022-10-16T04:27:55;16.00;99.90
21246;DHT22;10781;50.928;4.440;2022-10-16T04:30:22;15.90;99.90
21246;DHT22;10781;50.928;4.440;2022-10-16T04:32:49;15.80;99.90
21246;DHT22;10781;50.928;4.440;2022-10-16T04:35:15;15.80;99.90
21246;DHT22;10781;50.928;4.440;2022-10-16T04:37:41;15.80;99.90
21246;DHT22;10781;50.928;4.440;2022-10-16T04:40:07;15.70;99.90
21246;DHT22;10781;50.928;4.440;2022-10-16T04:44:59;15.60;99.90
21246;DHT22;10781;50.928;4.440;2022-10-16T04:47:24;15.40;99.90
21246;DHT22;10781;50.928;4.440;2022-10-16T04:49:50;15.40;99.90
21246;DHT22;10781;50.928;4.440;2022-10-16T04:52:15;15.40;99.90
21246;DHT22;10781;50.928;4.440;2022-10-16T04:54:41;15.40;99.90
21246;DHT22;10781;50.928;4.440;2022-10-16T04:57:07;15.40;99.90
21246;DHT22;10781;50.928;4.440;2022-10-16T04:59:32;15.40;99.90
21246;DHT22;10781;50.928;4.440;2022-10-16T05:01:58;15.40;99.90
21246;DHT22;10781;50.928;4.440;2022-10-16T05:04:23;15.50;99.90
21246;DHT22;10781;50.928;4.440;2022-10-16T05:06:49;15.60;99.90
21246;DHT22;10781;50.928;4.440;2022-10-16T05:09:15;15.50;99.90
21246;DHT22;10781;50.928;4.440;2022-10-16T05:11:40;15.40;99.90
21246;DHT22;10781;50.928;4.440;2022-10-16T05:14:06;15.50;99.90
21246;DHT22;10781;50.928;4.440;2022-10-16T05:16:32;15.40;99.90
21246;DHT22;10781;50.928;4.440;2022-10-16T05:18:57;15.60;99.90
21246;DHT22;10781;50.928;4.440;2022-10-16T05:21:23;15.40;99.90
21246;DHT22;10781;50.928;4.440;2022-10-16T05:23:49;15.20;99.90
21246;DHT22;10781;50.928;4.440;2022-10-16T05:26:14;15.20;99.90
21246;DHT22;10781;50.928;4.440;2022-10-16T05:28:40;15.20;99.90
21246;DHT22;10781;50.928;4.440;2022-10-16T05:31:06;15.10;99.90
21246;DHT22;10781;50.928;4.440;2022-10-16T05:36:06;15.00;99.90
21246;DHT22;10781;50.928;4.440;2022-10-16T05:38:33;15.00;99.90
21246;DHT22;10781;50.928;4.440;2022-10-16T05:40:59;15.10;99.90
21246;DHT22;10781;50.928;4.440;2022-10-16T05:43:24;15.10;99.90
21246;DHT22;10781;50.928;4.440;2022-10-16T05:45:57;15.10;99.90
21246;DHT22;10781;50.928;4.440;2022-10-16T05:48:23;15.20;99.90
21246;DHT22;10781;50.928;4.440;2022-10-16T05:50:59;15.20;99.90
21246;DHT22;10781;50.928;4.440;2022-10-16T05:53:27;15.30;99.90
21246;DHT22;10781;50.928;4.440;2022-10-16T05:55:54;15.30;99.90
21246;DHT22;10781;50.928;4.440;2022-10-16T05:58:20;15.30;99.90
21246;DHT22;10781;50.928;4.440;2022-10-16T06:00:53;15.10;99.90
21246;DHT22;10781;50.928;4.440;2022-10-16T06:03:19;14.90;99.90
21246;DHT22;10781;50.928;4.440;2022-10-16T06:05:44;14.90;99.90
21246;DHT22;10781;50.928;4.440;2022-10-16T06:08:10;15.00;99.90
21246;DHT22;10781;50.928;4.440;2022-10-16T06:10:36;15.00;99.90
21246;DHT22;10781;50.928;4.440;2022-10-16T06:13:01;15.10;99.90
21246;DHT22;10781;50.928;4.440;2022-10-16T06:15:27;15.00;99.90
21246;DHT22;10781;50.928;4.440;2022-10-16T06:20:18;15.40;99.90
21246;DHT22;10781;50.928;4.440;2022-10-16T06:22:44;15.20;99.90
21246;DHT22;10781;50.928;4.440;2022-10-16T06:25:09;15.20;99.90
21246;DHT22;10781;50.928;4.440;2022-10-16T06:27:35;15.20;99.90
21246;DHT22;10781;50.928;4.440;2022-10-16T06:30:01;15.30;99.90
21246;DHT22;10781;50.928;4.440;2022-10-16T06:32:27;15.40;99.90
21246;DHT22;10781;50.928;4.440;2022-10-16T06:39:44;15.30;99.90
21246;DHT22;10781;50.928;4.440;2022-10-16T06:44:36;15.70;99.90
21246;DHT22;10781;50.928;4.440;2022-10-16T06:47:02;15.80;99.90
21246;DHT22;10781;50.928;4.440;2022-10-16T06:49:27;15.80;99.90
21246;DHT22;10781;50.928;4.440;2022-10-16T06:51:53;15.70;99.90
21246;DHT22;10781;50.928;4.440;2022-10-16T06:54:19;15.80;99.90
21246;DHT22;10781;50.928;4.440;2022-10-16T06:56:45;15.70;99.90
21246;DHT22;10781;50.928;4.440;2022-10-16T06:59:10;15.70;99.90
21246;DHT22;10781;50.928;4.440;2022-10-16T07:01:36;15.80;99.90
21246;DHT22;10781;50.928;4.440;2022-10-16T07:04:02;15.90;99.90
21246;DHT22;10781;50.928;4.440;2022-10-16T07:06:31;16.00;99.90
21246;DHT22;10781;50.928;4.440;2022-10-16T07:08:57;16.00;99.90
21246;DHT22;10781;50.928;4.440;2022-10-16T07:11:24;16.20;99.90
21246;DHT22;10781;50.928;4.440;2022-10-16T07:13:50;16.20;99.90
21246;DHT22;10781;50.928;4.440;2022-10-16T07:16:19;16.30;99.90
21246;DHT22;10781;50.928;4.440;2022-10-16T07:18:45;16.10;99.90
21246;DHT22;10781;50.928;4.440;2022-10-16T07:21:12;16.00;99.90
21246;DHT22;10781;50.928;4.440;2022-10-16T07:23:38;16.00;99.90
21246;DHT22;10781;50.928;4.440;2022-10-16T07:26:07;15.90;99.90
21246;DHT22;10781;50.928;4.440;2022-10-16T07:28:33;16.00;99.90
21246;DHT22;10781;50.928;4.440;2022-10-16T07:31:07;15.90;99.90
21246;DHT22;10781;50.928;4.440;2022-10-16T07:33:34;15.80;99.90
21246;DHT22;10781;50.928;4.440;2022-10-16T07:36:00;15.80;99.90
21246;DHT22;10781;50.928;4.440;2022-10-16T07:38:28;15.70;99.90
21246;DHT22;10781;50.928;4.440;2022-10-16T07:40:58;15.70;99.90
21246;DHT22;10781;50.928;4.440;2022-10-16T07:43:25;15.80;99.90
21246;DHT22;10781;50.928;4.440;2022-10-16T07:45:51;16.00;99.90
21246;DHT22;10781;50.928;4.440;2022-10-16T07:48:17;15.90;99.90
21246;DHT22;10781;50.928;4.440;2022-10-16T07:50:44;15.90;99.90
21246;DHT22;10781;50.928;4.440;2022-10-16T07:53:10;16.00;99.90
21246;DHT22;10781;50.928;4.440;2022-10-16T07:55:36;16.20;99.90
21246;DHT22;10781;50.928;4.440;2022-10-16T07:58:05;16.10;99.90
21246;DHT22;10781;50.928;4.440;2022-10-16T08:00:33;16.10;99.90
21246;DHT22;10781;50.928;4.440;2022-10-16T08:02:59;16.20;99.90
21246;DHT22;10781;50.928;4.440;2022-10-16T08:05:28;16.30;99.90
21246;DHT22;10781;50.928;4.440;2022-10-16T08:07:55;16.30;99.90
21246;DHT22;10781;50.928;4.440;2022-10-16T08:10:22;16.30;99.90
21246;DHT22;10781;50.928;4.440;2022-10-16T08:12:48;16.40;99.90
21246;DHT22;10781;50.928;4.440;2022-10-16T08:15:14;16.60;99.90
21246;DHT22;10781;50.928;4.440;2022-10-16T08:17:40;16.60;99.90
21246;DHT22;10781;50.928;4.440;2022-10-16T08:20:06;16.50;99.90
21246;DHT22;10781;50.928;4.440;2022-10-16T08:22:32;16.70;99.90
21246;DHT22;10781;50.928;4.440;2022-10-16T08:24:57;16.80;99.90
21246;DHT22;10781;50.928;4.440;2022-10-16T08:27:23;17.00;99.90
21246;DHT22;10781;50.928;4.440;2022-10-16T08:29:49;17.00;99.90
21246;DHT22;10781;50.928;4.440;2022-10-16T08:32:15;17.40;99.90
21246;DHT22;10781;50.928;4.440;2022-10-16T08:34:41;18.10;99.90
21246;DHT22;10781;50.928;4.440;2022-10-16T08:39:33;22.20;99.90
21246;DHT22;10781;50.928;4.440;2022-10-16T08:42:35;22.20;99.90
21246;DHT22;10781;50.928;4.440;2022-10-16T08:45:34;23.00;99.90
21246;DHT22;10781;50.928;4.440;2022-10-16T08:50:42;21.20;99.90
21246;DHT22;10781;50.928;4.440;2022-10-16T08:53:22;20.10;99.90
21246;DHT22;10781;50.928;4.440;2022-10-16T08:55:53;19.70;99.90
21246;DHT22;10781;50.928;4.440;2022-10-16T08:58:22;19.90;99.90
21246;DHT22;10781;50.928;4.440;2022-10-16T09:00:52;21.50;99.90
21246;DHT22;10781;50.928;4.440;2022-10-16T09:04:07;23.80;99.90
21246;DHT22;10781;50.928;4.440;2022-10-16T09:09:02;27.30;99.90
21246;DHT22;10781;50.928;4.440;2022-10-16T09:12:00;29.10;99.90
21246;DHT22;10781;50.928;4.440;2022-10-16T09:14:32;29.40;99.90
21246;DHT22;10781;50.928;4.440;2022-10-16T09:19:51;32.10;93.00
21246;DHT22;10781;50.928;4.440;2022-10-16T09:22:21;32.00;93.20
21246;DHT22;10781;50.928;4.440;2022-10-16T09:24:53;29.10;94.60
21246;DHT22;10781;50.928;4.440;2022-10-16T09:27:20;29.00;94.90
21246;DHT22;10781;50.928;4.440;2022-10-16T09:29:45;27.60;98.20
21246;DHT22;10781;50.928;4.440;2022-10-16T09:32:14;26.50;99.90
21246;DHT22;10781;50.928;4.440;2022-10-16T09:34:45;27.10;99.90
21246;DHT22;10781;50.928;4.440;2022-10-16T09:37:16;30.00;96.40
21246;DHT22;10781;50.928;4.440;2022-10-16T09:39:53;30.00;96.80
21246;DHT22;10781;50.928;4.440;2022-10-16T09:42:27;31.80;94.60
21246;DHT22;10781;50.928;4.440;2022-10-16T09:44:56;33.80;90.40
21246;DHT22;10781;50.928;4.440;2022-10-16T09:47:27;35.20;81.70
21246;DHT22;10781;50.928;4.440;2022-10-16T09:49:58;34.70;79.20
21246;DHT22;10781;50.928;4.440;2022-10-16T09:52:28;35.70;75.80
21246;DHT22;10781;50.928;4.440;2022-10-16T09:54:59;33.70;73.80
21246;DHT22;10781;50.928;4.440;2022-10-16T09:57:26;33.70;74.60
21246;DHT22;10781;50.928;4.440;2022-10-16T09:59:54;34.70;73.90
21246;DHT22;10781;50.928;4.440;2022-10-16T10:04:53;34.80;70.40
21246;DHT22;10781;50.928;4.440;2022-10-16T10:07:28;34.30;70.00
21246;DHT22;10781;50.928;4.440;2022-10-16T10:09:58;35.20;69.60
21246;DHT22;10781;50.928;4.440;2022-10-16T10:12:26;35.40;67.30
21246;DHT22;10781;50.928;4.440;2022-10-16T10:14:55;34.80;67.00
21246;DHT22;10781;50.928;4.440;2022-10-16T10:17:26;35.10;67.50
21246;DHT22;10781;50.928;4.440;2022-10-16T10:19:54;35.20;67.20
21246;DHT22;10781;50.928;4.440;2022-10-16T10:22:31;35.20;65.00
21246;DHT22;10781;50.928;4.440;2022-10-16T10:25:14;36.40;62.00
21246;DHT22;10781;50.928;4.440;2022-10-16T10:38:22;34.00;64.40
21246;DHT22;10781;50.928;4.440;2022-10-16T10:41:10;34.40;64.90
21246;DHT22;10781;50.928;4.440;2022-10-16T10:44:01;36.30;62.30
21246;DHT22;10781;50.928;4.440;2022-10-16T10:46:35;38.00;59.40
21246;DHT22;10781;50.928;4.440;2022-10-16T10:54:54;40.00;51.60
21246;DHT22;10781;50.928;4.440;2022-10-16T10:57:52;39.20;51.60
21246;DHT22;10781;50.928;4.440;2022-10-16T11:01:30;38.50;52.00
21246;DHT22;10781;50.928;4.440;2022-10-16T11:09:19;36.90;52.30
21246;DHT22;10781;50.928;4.440;2022-10-16T11:12:07;36.80;52.80
21246;DHT22;10781;50.928;4.440;2022-10-16T11:14:40;36.70;52.50
21246;DHT22;10781;50.928;4.440;2022-10-16T11:17:14;37.50;53.00
21246;DHT22;10781;50.928;4.440;2022-10-16T11:19:49;36.80;52.60
21246;DHT22;10781;50.928;4.440;2022-10-16T11:22:36;36.30;52.50
21246;DHT22;10781;50.928;4.440;2022-10-16T11:28:11;36.60;53.20
21246;DHT22;10781;50.928;4.440;2022-10-16T11:31:00;36.70;51.40
21246;DHT22;10781;50.928;4.440;2022-10-16T11:36:14;35.40;53.80
21246;DHT22;10781;50.928;4.440;2022-10-16T11:41:27;37.00;51.60
21246;DHT22;10781;50.928;4.440;2022-10-16T11:50:02;36.10;52.30
21246;DHT22;10781;50.928;4.440;2022-10-16T11:52:36;36.40;51.30
21246;DHT22;10781;50.928;4.440;2022-10-16T11:55:20;35.90;51.50
21246;DHT22;10781;50.928;4.440;2022-10-16T11:57:57;35.90;52.20
21246;DHT22;10781;50.928;4.440;2022-10-16T12:01:00;36.10;51.20
21246;DHT22;10781;50.928;4.440;2022-10-16T12:03:41;34.40;51.80
21246;DHT22;10781;50.928;4.440;2022-10-16T12:09:03;31.70;57.30
21246;DHT22;10781;50.928;4.440;2022-10-16T12:16:57;32.10;57.50
21246;DHT22;10781;50.928;4.440;2022-10-16T12:19:26;31.70;58.90
21246;DHT22;10781;50.928;4.440;2022-10-16T12:21:55;31.60;60.10
21246;DHT22;10781;50.928;4.440;2022-10-16T12:26:58;32.90;56.50
21246;DHT22;10781;50.928;4.440;2022-10-16T12:29:32;32.60;57.00
21246;DHT22;10781;50.928;4.440;2022-10-16T12:31:59;31.80;57.40
21246;DHT22;10781;50.928;4.440;2022-10-16T12:34:41;30.90;59.20
21246;DHT22;10781;50.928;4.440;2022-10-16T12:37:35;30.60;61.70
21246;DHT22;10781;50.928;4.440;2022-10-16T12:40:23;30.50;59.80
21246;DHT22;10781;50.928;4.440;2022-10-16T12:42:54;30.10;61.50
21246;DHT22;10781;50.928;4.440;2022-10-16T12:47:53;29.00;63.10
21246;DHT22;10781;50.928;4.440;2022-10-16T12:50:33;28.80;63.70
21246;DHT22;10781;50.928;4.440;2022-10-16T12:53:00;27.70;65.30
21246;DHT22;10781;50.928;4.440;2022-10-16T12:55:26;26.80;68.30
21246;DHT22;10781;50.928;4.440;2022-10-16T13:00:57;26.10;72.00
21246;DHT22;10781;50.928;4.440;2022-10-16T13:06:51;24.90;75.30
21246;DHT22;10781;50.928;4.440;2022-10-16T13:10:09;24.50;77.70
21246;DHT22;10781;50.928;4.440;2022-10-16T13:18:33;23.50;84.00
21246;DHT22;10781;50.928;4.440;2022-10-16T13:28:39;24.80;82.60
21246;DHT22;10781;50.928;4.440;2022-10-16T13:31:05;24.50;83.40
21246;DHT22;10781;50.928;4.440;2022-10-16T13:33:39;24.30;85.50
21246;DHT22;10781;50.928;4.440;2022-10-16T13:36:05;24.40;86.80
21246;DHT22;10781;50.928;4.440;2022-10-16T13:38:34;24.10;89.50
21246;DHT22;10781;50.928;4.440;2022-10-16T13:41:02;22.60;92.70
21246;DHT22;10781;50.928;4.440;2022-10-16T13:46:11;22.00;96.10
21246;DHT22;10781;50.928;4.440;2022-10-16T13:48:37;21.60;99.90
21246;DHT22;10781;50.928;4.440;2022-10-16T13:51:12;21.40;99.90
21246;DHT22;10781;50.928;4.440;2022-10-16T13:53:39;21.40;99.90
21246;DHT22;10781;50.928;4.440;2022-10-16T13:56:09;21.80;99.90
21246;DHT22;10781;50.928;4.440;2022-10-16T13:58:35;22.10;99.90
21246;DHT22;10781;50.928;4.440;2022-10-16T14:01:06;21.90;99.90
21246;DHT22;10781;50.928;4.440;2022-10-16T14:03:39;21.50;99.90
21246;DHT22;10781;50.928;4.440;2022-10-16T14:06:12;22.00;99.90
21246;DHT22;10781;50.928;4.440;2022-10-16T14:08:43;21.90;99.90
21246;DHT22;10781;50.928;4.440;2022-10-16T14:11:10;21.40;99.90
21246;DHT22;10781;50.928;4.440;2022-10-16T14:13:47;21.40;99.90
21246;DHT22;10781;50.928;4.440;2022-10-16T14:16:25;21.20;99.90
21246;DHT22;10781;50.928;4.440;2022-10-16T14:21:41;21.00;99.90
21246;DHT22;10781;50.928;4.440;2022-10-16T14:24:22;20.70;99.90
21246;DHT22;10781;50.928;4.440;2022-10-16T14:26:50;20.40;99.90
21246;DHT22;10781;50.928;4.440;2022-10-16T14:29:18;20.50;99.90
21246;DHT22;10781;50.928;4.440;2022-10-16T14:31:59;20.90;99.90
21246;DHT22;10781;50.928;4.440;2022-10-16T14:34:36;21.20;99.90
21246;DHT22;10781;50.928;4.440;2022-10-16T14:37:13;21.10;99.90
21246;DHT22;10781;50.928;4.440;2022-10-16T14:39:41;21.00;99.90
21246;DHT22;10781;50.928;4.440;2022-10-16T14:42:20;21.00;99.90
21246;DHT22;10781;50.928;4.440;2022-10-16T14:44:50;21.30;99.90
21246;DHT22;10781;50.928;4.440;2022-10-16T14:47:19;21.00;99.90
21246;DHT22;10781;50.928;4.440;2022-10-16T14:49:51;20.90;99.90
21246;DHT22;10781;50.928;4.440;2022-10-16T14:52:16;21.20;99.90
21246;DHT22;10781;50.928;4.440;2022-10-16T14:54:42;21.00;99.90
21246;DHT22;10781;50.928;4.440;2022-10-16T14:57:19;21.00;99.90
21246;DHT22;10781;50.928;4.440;2022-10-16T14:59:47;20.70;99.90
21246;DHT22;10781;50.928;4.440;2022-10-16T15:02:33;20.60;99.90
21246;DHT22;10781;50.928;4.440;2022-10-16T15:05:26;20.90;99.90
21246;DHT22;10781;50.928;4.440;2022-10-16T15:07:53;20.80;99.90
21246;DHT22;10781;50.928;4.440;2022-10-16T15:10:24;20.90;99.90
21246;DHT22;10781;50.928;4.440;2022-10-16T15:12:51;20.90;99.90
21246;DHT22;10781;50.928;4.440;2022-10-16T15:17:53;21.10;99.90
21246;DHT22;10781;50.928;4.440;2022-10-16T15:20:26;21.10;99.90
21246;DHT22;10781;50.928;4.440;2022-10-16T15:22:52;21.50;99.90
21246;DHT22;10781;50.928;4.440;2022-10-16T15:25:31;21.40;99.90
21246;DHT22;10781;50.928;4.440;2022-10-16T15:27:59;21.50;99.90
21246;DHT22;10781;50.928;4.440;2022-10-16T15:30:25;21.50;99.90
21246;DHT22;10781;50.928;4.440;2022-10-16T15:32:51;21.70;99.90
21246;DHT22;10781;50.928;4.440;2022-10-16T15:35:17;21.80;99.90
21246;DHT22;10781;50.928;4.440;2022-10-16T15:37:42;21.80;99.90
21246;DHT22;10781;50.928;4.440;2022-10-16T15:40:10;21.80;99.90
21246;DHT22;10781;50.928;4.440;2022-10-16T15:42:36;21.90;99.90
21246;DHT22;10781;50.928;4.440;2022-10-16T15:45:02;22.10;99.90
21246;DHT22;10781;50.928;4.440;2022-10-16T15:47:28;22.10;99.90
21246;DHT22;10781;50.928;4.440;2022-10-16T15:49:54;22.10;99.90
21246;DHT22;10781;50.928;4.440;2022-10-16T15:52:19;22.20;99.90
21246;DHT22;10781;50.928;4.440;2022-10-16T15:54:45;22.10;99.90
21246;DHT22;10781;50.928;4.440;2022-10-16T15:57:10;22.00;99.90
21246;DHT22;10781;50.928;4.440;2022-10-16T15:59:36;21.90;99.90
21246;DHT22;10781;50.928;4.440;2022-10-16T16:02:02;21.60;99.90
21246;DHT22;10781;50.928;4.440;2022-10-16T16:04:30;21.50;99.90
21246;DHT22;10781;50.928;4.440;2022-10-16T16:06:56;21.50;99.90
21246;DHT22;10781;50.928;4.440;2022-10-16T16:09:22;21.70;99.90
21246;DHT22;10781;50.928;4.440;2022-10-16T16:11:48;21.50;99.90
21246;DHT22;10781;50.928;4.440;2022-10-16T16:14:14;21.40;99.90
21246;DHT22;10781;50.928;4.440;2022-10-16T16:16:41;21.30;99.90
21246;DHT22;10781;50.928;4.440;2022-10-16T16:19:07;21.40;99.90
21246;DHT22;10781;50.928;4.440;2022-10-16T16:21:34;21.40;99.90
21246;DHT22;10781;50.928;4.440;2022-10-16T16:23:59;21.40;99.90
21246;DHT22;10781;50.928;4.440;2022-10-16T16:26:27;21.50;99.90
21246;DHT22;10781;50.928;4.440;2022-10-16T16:28:54;21.60;99.90
21246;DHT22;10781;50.928;4.440;2022-10-16T16:31:24;21.80;99.90
21246;DHT22;10781;50.928;4.440;2022-10-16T16:33:50;21.80;99.90
21246;DHT22;10781;50.928;4.440;2022-10-16T16:36:17;21.70;99.90
21246;DHT22;10781;50.928;4.440;2022-10-16T16:38:43;21.50;99.90
21246;DHT22;10781;50.928;4.440;2022-10-16T16:41:14;21.40;99.90
21246;DHT22;10781;50.928;4.440;2022-10-16T16:43:40;21.30;99.90
21246;DHT22;10781;50.928;4.440;2022-10-16T16:46:06;21.70;99.90
21246;DHT22;10781;50.928;4.440;2022-10-16T16:48:32;21.60;99.90
21246;DHT22;10781;50.928;4.440;2022-10-16T16:51:09;21.60;99.90
21246;DHT22;10781;50.928;4.440;2022-10-16T16:53:37;21.40;99.90
21246;DHT22;10781;50.928;4.440;2022-10-16T16:56:04;21.20;99.90
21246;DHT22;10781;50.928;4.440;2022-10-16T16:58:30;21.10;99.90
21246;DHT22;10781;50.928;4.440;2022-10-16T17:06:04;21.40;99.90
21246;DHT22;10781;50.928;4.440;2022-10-16T17:08:30;21.40;99.90
21246;DHT22;10781;50.928;4.440;2022-10-16T17:10:56;21.20;99.90
21246;DHT22;10781;50.928;4.440;2022-10-16T17:13:27;21.20;99.90
21246;DHT22;10781;50.928;4.440;2022-10-16T17:15:53;21.10;99.90
21246;DHT22;10781;50.928;4.440;2022-10-16T17:18:20;20.20;99.90
21246;DHT22;10781;50.928;4.440;2022-10-16T17:20:46;19.70;99.90
21246;DHT22;10781;50.928;4.440;2022-10-16T17:23:13;19.60;99.90
21246;DHT22;10781;50.928;4.440;2022-10-16T17:25:39;19.60;99.90
21246;DHT22;10781;50.928;4.440;2022-10-16T17:28:12;19.30;99.90
21246;DHT22;10781;50.928;4.440;2022-10-16T17:30:39;19.30;99.90
21246;DHT22;10781;50.928;4.440;2022-10-16T17:33:06;19.40;99.90
21246;DHT22;10781;50.928;4.440;2022-10-16T17:35:41;19.40;99.90
21246;DHT22;10781;50.928;4.440;2022-10-16T17:38:10;19.40;99.90
21246;DHT22;10781;50.928;4.440;2022-10-16T17:41:23;19.30;99.90
21246;DHT22;10781;50.928;4.440;2022-10-16T17:46:19;19.10;99.90
21246;DHT22;10781;50.928;4.440;2022-10-16T17:48:48;18.70;99.90
21246;DHT22;10781;50.928;4.440;2022-10-16T17:51:17;18.80;99.90
21246;DHT22;10781;50.928;4.440;2022-10-16T17:53:46;18.80;99.90
21246;DHT22;10781;50.928;4.440;2022-10-16T17:56:12;18.70;99.90
21246;DHT22;10781;50.928;4.440;2022-10-16T18:01:16;18.00;99.90
21246;DHT22;10781;50.928;4.440;2022-10-16T18:03:43;18.10;99.90